sensor_id;sensor_type;location;lat;lon;timestamp;P1;durP1;ratioP1;P2;durP2;ratioP2
10582;SDS011;33679;51.218;6.786;2023-08-17T00:01:50;5.40;;;3.93;;
10582;SDS011;33679;51.218;6.786;2023-08-17T00:04:23;4.43;;;4.00;;
10582;SDS011;33679;51.218;6.786;2023-08-17T00:06:55;9.23;;;4.53;;
10582;SDS011;33679;51.218;6.786;2023-08-17T00:09:27;5.40;;;4.87;;
10582;SDS011;33679;51.218;6.786;2023-08-17T00:11:59;5.20;;;4.20;;
10582;SDS011;33679;51.218;6.786;2023-08-17T00:14:33;5.80;;;4.30;;
10582;SDS011;33679;51.218;6.786;2023-08-17T00:17:06;6.90;;;4.87;;
10582;SDS011;33679;51.218;6.786;2023-08-17T00:19:39;5.70;;;5.07;;
10582;SDS011;33679;51.218;6.786;2023-08-17T00:22:11;5.90;;;5.40;;
10582;SDS011;33679;51.218;6.786;2023-08-17T00:24:43;14.80;;;4.67;;
10582;SDS011;33679;51.218;6.786;2023-08-17T00:27:16;4.83;;;3.63;;
10582;SDS011;33679;51.218;6.786;2023-08-17T00:29:49;4.93;;;4.30;;
10582;SDS011;33679;51.218;6.786;2023-08-17T00:32:22;5.30;;;4.43;;
10582;SDS011;33679;51.218;6.786;2023-08-17T00:34:55;5.13;;;4.63;;
10582;SDS011;33679;51.218;6.786;2023-08-17T00:37:27;6.40;;;4.57;;
10582;SDS011;33679;51.218;6.786;2023-08-17T00:40:00;5.03;;;4.53;;
10582;SDS011;33679;51.218;6.786;2023-08-17T00:42:32;4.83;;;4.40;;
10582;SDS011;33679;51.218;6.786;2023-08-17T00:45:06;4.90;;;3.93;;
10582;SDS011;33679;51.218;6.786;2023-08-17T00:47:39;4.87;;;4.47;;
10582;SDS011;33679;51.218;6.786;2023-08-17T00:50:11;5.77;;;4.40;;
10582;SDS011;33679;51.218;6.786;2023-08-17T00:52:46;5.13;;;4.63;;
10582;SDS011;33679;51.218;6.786;2023-08-17T00:55:29;5.03;;;4.57;;
10582;SDS011;33679;51.218;6.786;2023-08-17T00:58:02;5.37;;;4.77;;
10582;SDS011;33679;51.218;6.786;2023-08-17T01:00:35;5.13;;;4.40;;
10582;SDS011;33679;51.218;6.786;2023-08-17T01:03:08;7.30;;;4.90;;
10582;SDS011;33679;51.218;6.786;2023-08-17T01:05:42;4.67;;;4.27;;
10582;SDS011;33679;51.218;6.786;2023-08-17T01:08:14;3.80;;;3.50;;
10582;SDS011;33679;51.218;6.786;2023-08-17T01:10:50;5.00;;;4.60;;
10582;SDS011;33679;51.218;6.786;2023-08-17T01:13:30;7.63;;;4.90;;
10582;SDS011;33679;51.218;6.786;2023-08-17T01:16:09;8.60;;;5.77;;
10582;SDS011;33679;51.218;6.786;2023-08-17T01:18:47;5.00;;;4.10;;
10582;SDS011;33679;51.218;6.786;2023-08-17T01:21:21;5.73;;;4.47;;
10582;SDS011;33679;51.218;6.786;2023-08-17T01:23:58;5.03;;;4.43;;
10582;SDS011;33679;51.218;6.786;2023-08-17T01:26:31;4.33;;;3.50;;
10582;SDS011;33679;51.218;6.786;2023-08-17T01:29:05;8.70;;;3.93;;
10582;SDS011;33679;51.218;6.786;2023-08-17T01:31:40;6.53;;;4.30;;
10582;SDS011;33679;51.218;6.786;2023-08-17T01:34:19;4.37;;;3.50;;
10582;SDS011;33679;51.218;6.786;2023-08-17T01:36:56;6.53;;;3.73;;
10582;SDS011;33679;51.218;6.786;2023-08-17T01:39:35;4.93;;;3.50;;
10582;SDS011;33679;51.218;6.786;2023-08-17T01:42:11;4.73;;;3.70;;
10582;SDS011;33679;51.218;6.786;2023-08-17T01:44:44;4.07;;;3.47;;
10582;SDS011;33679;51.218;6.786;2023-08-17T01:47:20;7.97;;;4.30;;
10582;SDS011;33679;51.218;6.786;2023-08-17T01:49:52;5.67;;;3.33;;
10582;SDS011;33679;51.218;6.786;2023-08-17T01:52:26;4.63;;;4.13;;
10582;SDS011;33679;51.218;6.786;2023-08-17T01:55:01;7.20;;;3.63;;
10582;SDS011;33679;51.218;6.786;2023-08-17T01:57:33;3.90;;;3.33;;
10582;SDS011;33679;51.218;6.786;2023-08-17T02:00:06;4.77;;;3.47;;
10582;SDS011;33679;51.218;6.786;2023-08-17T02:02:44;5.90;;;3.70;;
10582;SDS011;33679;51.218;6.786;2023-08-17T02:05:17;5.47;;;4.53;;
10582;SDS011;33679;51.218;6.786;2023-08-17T02:07:50;3.80;;;3.40;;
10582;SDS011;33679;51.218;6.786;2023-08-17T02:10:25;8.80;;;3.53;;
10582;SDS011;33679;51.218;6.786;2023-08-17T02:12:58;7.17;;;3.73;;
10582;SDS011;33679;51.218;6.786;2023-08-17T02:15:37;3.80;;;3.07;;
10582;SDS011;33679;51.218;6.786;2023-08-17T02:18:10;6.17;;;4.10;;
10582;SDS011;33679;51.218;6.786;2023-08-17T02:20:42;3.20;;;2.80;;
10582;SDS011;33679;51.218;6.786;2023-08-17T02:23:17;9.70;;;4.17;;
10582;SDS011;33679;51.218;6.786;2023-08-17T02:25:50;5.03;;;3.87;;
10582;SDS011;33679;51.218;6.786;2023-08-17T02:28:25;5.97;;;5.33;;
10582;SDS011;33679;51.218;6.786;2023-08-17T02:30:58;4.10;;;3.70;;
10582;SDS011;33679;51.218;6.786;2023-08-17T02:33:32;6.97;;;4.23;;
10582;SDS011;33679;51.218;6.786;2023-08-17T02:36:09;4.23;;;3.83;;
10582;SDS011;33679;51.218;6.786;2023-08-17T02:38:42;7.63;;;4.30;;
10582;SDS011;33679;51.218;6.786;2023-08-17T02:41:16;5.73;;;3.43;;
10582;SDS011;33679;51.218;6.786;2023-08-17T02:43:48;3.50;;;3.20;;
10582;SDS011;33679;51.218;6.786;2023-08-17T02:46:20;4.77;;;4.13;;
10582;SDS011;33679;51.218;6.786;2023-08-17T02:48:53;9.03;;;4.43;;
10582;SDS011;33679;51.218;6.786;2023-08-17T02:51:25;9.37;;;3.80;;
10582;SDS011;33679;51.218;6.786;2023-08-17T02:53:57;5.77;;;4.07;;
10582;SDS011;33679;51.218;6.786;2023-08-17T02:56:31;4.67;;;3.70;;
10582;SDS011;33679;51.218;6.786;2023-08-17T02:59:03;6.43;;;4.13;;
10582;SDS011;33679;51.218;6.786;2023-08-17T03:01:36;4.30;;;3.27;;
10582;SDS011;33679;51.218;6.786;2023-08-17T03:04:09;4.93;;;3.73;;
10582;SDS011;33679;51.218;6.786;2023-08-17T03:06:41;4.53;;;4.07;;
10582;SDS011;33679;51.218;6.786;2023-08-17T03:09:13;3.60;;;3.30;;
10582;SDS011;33679;51.218;6.786;2023-08-17T03:11:47;3.70;;;3.33;;
10582;SDS011;33679;51.218;6.786;2023-08-17T03:14:20;6.47;;;4.57;;
10582;SDS011;33679;51.218;6.786;2023-08-17T03:16:52;6.93;;;4.43;;
10582;SDS011;33679;51.218;6.786;2023-08-17T03:19:24;4.80;;;4.30;;
10582;SDS011;33679;51.218;6.786;2023-08-17T03:21:57;5.40;;;4.83;;
10582;SDS011;33679;51.218;6.786;2023-08-17T03:24:29;6.53;;;5.00;;
10582;SDS011;33679;51.218;6.786;2023-08-17T03:27:06;5.60;;;4.43;;
10582;SDS011;33679;51.218;6.786;2023-08-17T03:29:39;8.37;;;4.73;;
10582;SDS011;33679;51.218;6.786;2023-08-17T03:32:12;7.60;;;5.90;;
10582;SDS011;33679;51.218;6.786;2023-08-17T03:34:44;6.30;;;4.60;;
10582;SDS011;33679;51.218;6.786;2023-08-17T03:37:19;5.83;;;5.27;;
10582;SDS011;33679;51.218;6.786;2023-08-17T03:39:53;6.70;;;4.90;;
10582;SDS011;33679;51.218;6.786;2023-08-17T03:42:27;7.37;;;5.63;;
10582;SDS011;33679;51.218;6.786;2023-08-17T03:44:59;11.07;;;6.60;;
10582;SDS011;33679;51.218;6.786;2023-08-17T03:47:32;7.20;;;6.00;;
10582;SDS011;33679;51.218;6.786;2023-08-17T03:50:05;14.43;;;6.43;;
10582;SDS011;33679;51.218;6.786;2023-08-17T03:52:38;7.40;;;5.30;;
10582;SDS011;33679;51.218;6.786;2023-08-17T03:55:10;9.50;;;5.77;;
10582;SDS011;33679;51.218;6.786;2023-08-17T03:57:44;8.33;;;5.53;;
10582;SDS011;33679;51.218;6.786;2023-08-17T04:00:17;15.20;;;6.23;;
10582;SDS011;33679;51.218;6.786;2023-08-17T04:02:49;10.07;;;6.37;;
10582;SDS011;33679;51.218;6.786;2023-08-17T04:05:24;8.90;;;6.43;;
10582;SDS011;33679;51.218;6.786;2023-08-17T04:07:56;8.80;;;5.77;;
10582;SDS011;33679;51.218;6.786;2023-08-17T04:10:32;7.37;;;5.63;;
10582;SDS011;33679;51.218;6.786;2023-08-17T04:13:05;12.57;;;7.20;;
10582;SDS011;33679;51.218;6.786;2023-08-17T04:15:38;11.73;;;7.27;;
10582;SDS011;33679;51.218;6.786;2023-08-17T04:18:10;9.87;;;6.27;;
10582;SDS011;33679;51.218;6.786;2023-08-17T04:20:43;14.87;;;7.60;;
10582;SDS011;33679;51.218;6.786;2023-08-17T04:23:17;13.60;;;7.07;;
10582;SDS011;33679;51.218;6.786;2023-08-17T04:25:50;10.33;;;7.83;;
10582;SDS011;33679;51.218;6.786;2023-08-17T04:28:24;11.07;;;7.93;;
10582;SDS011;33679;51.218;6.786;2023-08-17T04:30:59;9.70;;;7.07;;
10582;SDS011;33679;51.218;6.786;2023-08-17T04:33:36;9.70;;;7.07;;
10582;SDS011;33679;51.218;6.786;2023-08-17T04:36:11;12.37;;;7.10;;
10582;SDS011;33679;51.218;6.786;2023-08-17T04:38:43;9.17;;;6.60;;
10582;SDS011;33679;51.218;6.786;2023-08-17T04:41:21;12.13;;;7.27;;
10582;SDS011;33679;51.218;6.786;2023-08-17T04:43:58;12.67;;;8.67;;
10582;SDS011;33679;51.218;6.786;2023-08-17T04:46:31;15.73;;;8.43;;
10582;SDS011;33679;51.218;6.786;2023-08-17T04:49:06;10.53;;;7.77;;
10582;SDS011;33679;51.218;6.786;2023-08-17T04:51:38;10.10;;;8.27;;
10582;SDS011;33679;51.218;6.786;2023-08-17T04:54:11;11.93;;;7.67;;
10582;SDS011;33679;51.218;6.786;2023-08-17T04:56:44;14.40;;;10.63;;
10582;SDS011;33679;51.218;6.786;2023-08-17T04:59:19;15.70;;;9.40;;
10582;SDS011;33679;51.218;6.786;2023-08-17T05:01:53;10.70;;;8.13;;
10582;SDS011;33679;51.218;6.786;2023-08-17T05:04:26;14.90;;;9.47;;
10582;SDS011;33679;51.218;6.786;2023-08-17T05:06:58;14.70;;;9.73;;
10582;SDS011;33679;51.218;6.786;2023-08-17T05:09:31;15.10;;;9.93;;
10582;SDS011;33679;51.218;6.786;2023-08-17T05:12:06;13.50;;;9.97;;
10582;SDS011;33679;51.218;6.786;2023-08-17T05:14:42;17.60;;;8.37;;
10582;SDS011;33679;51.218;6.786;2023-08-17T05:17:15;9.93;;;8.10;;
10582;SDS011;33679;51.218;6.786;2023-08-17T05:19:50;10.80;;;8.53;;
10582;SDS011;33679;51.218;6.786;2023-08-17T05:22:23;15.07;;;9.83;;
10582;SDS011;33679;51.218;6.786;2023-08-17T05:24:55;11.67;;;9.00;;
10582;SDS011;33679;51.218;6.786;2023-08-17T05:27:30;14.70;;;9.50;;
10582;SDS011;33679;51.218;6.786;2023-08-17T05:30:07;14.43;;;9.20;;
10582;SDS011;33679;51.218;6.786;2023-08-17T05:32:40;12.20;;;8.27;;
10582;SDS011;33679;51.218;6.786;2023-08-17T05:35:12;14.17;;;9.70;;
10582;SDS011;33679;51.218;6.786;2023-08-17T05:37:45;13.20;;;10.00;;
10582;SDS011;33679;51.218;6.786;2023-08-17T05:40:20;17.70;;;9.93;;
10582;SDS011;33679;51.218;6.786;2023-08-17T05:42:53;12.33;;;9.30;;
10582;SDS011;33679;51.218;6.786;2023-08-17T05:45:26;13.73;;;10.17;;
10582;SDS011;33679;51.218;6.786;2023-08-17T05:47:59;11.33;;;9.43;;
10582;SDS011;33679;51.218;6.786;2023-08-17T05:50:36;14.13;;;9.47;;
10582;SDS011;33679;51.218;6.786;2023-08-17T05:53:11;12.50;;;9.00;;
10582;SDS011;33679;51.218;6.786;2023-08-17T05:55:45;12.30;;;9.30;;
10582;SDS011;33679;51.218;6.786;2023-08-17T05:58:17;12.47;;;8.57;;
10582;SDS011;33679;51.218;6.786;2023-08-17T06:00:51;12.13;;;9.57;;
10582;SDS011;33679;51.218;6.786;2023-08-17T06:03:23;10.17;;;8.20;;
10582;SDS011;33679;51.218;6.786;2023-08-17T06:05:56;12.33;;;8.70;;
10582;SDS011;33679;51.218;6.786;2023-08-17T06:08:28;13.87;;;9.50;;
10582;SDS011;33679;51.218;6.786;2023-08-17T06:11:02;10.50;;;8.17;;
10582;SDS011;33679;51.218;6.786;2023-08-17T06:13:35;9.70;;;7.40;;
10582;SDS011;33679;51.218;6.786;2023-08-17T06:16:09;8.20;;;6.43;;
10582;SDS011;33679;51.218;6.786;2023-08-17T06:18:42;14.83;;;9.17;;
10582;SDS011;33679;51.218;6.786;2023-08-17T06:21:14;10.93;;;8.60;;
10582;SDS011;33679;51.218;6.786;2023-08-17T06:23:46;12.37;;;9.40;;
10582;SDS011;33679;51.218;6.786;2023-08-17T06:26:18;9.50;;;7.90;;
10582;SDS011;33679;51.218;6.786;2023-08-17T06:28:51;12.20;;;8.50;;
10582;SDS011;33679;51.218;6.786;2023-08-17T06:31:25;14.73;;;8.70;;
10582;SDS011;33679;51.218;6.786;2023-08-17T06:33:58;9.40;;;8.20;;
10582;SDS011;33679;51.218;6.786;2023-08-17T06:36:31;13.57;;;9.13;;
10582;SDS011;33679;51.218;6.786;2023-08-17T06:39:04;11.53;;;8.07;;
10582;SDS011;33679;51.218;6.786;2023-08-17T06:41:37;14.60;;;8.80;;
10582;SDS011;33679;51.218;6.786;2023-08-17T06:44:09;9.23;;;7.50;;
10582;SDS011;33679;51.218;6.786;2023-08-17T06:46:43;8.63;;;7.50;;
10582;SDS011;33679;51.218;6.786;2023-08-17T06:49:16;18.07;;;8.97;;
10582;SDS011;33679;51.218;6.786;2023-08-17T06:51:48;9.53;;;7.90;;
10582;SDS011;33679;51.218;6.786;2023-08-17T06:54:20;10.30;;;7.20;;
10582;SDS011;33679;51.218;6.786;2023-08-17T06:56:53;10.40;;;8.40;;
10582;SDS011;33679;51.218;6.786;2023-08-17T06:59:25;11.70;;;8.90;;
10582;SDS011;33679;51.218;6.786;2023-08-17T07:01:59;9.03;;;6.70;;
10582;SDS011;33679;51.218;6.786;2023-08-17T07:04:31;10.00;;;7.37;;
10582;SDS011;33679;51.218;6.786;2023-08-17T07:07:04;7.93;;;6.40;;
10582;SDS011;33679;51.218;6.786;2023-08-17T07:09:36;8.53;;;5.80;;
10582;SDS011;33679;51.218;6.786;2023-08-17T07:12:09;7.50;;;6.13;;
10582;SDS011;33679;51.218;6.786;2023-08-17T07:14:42;7.97;;;5.93;;
10582;SDS011;33679;51.218;6.786;2023-08-17T07:17:17;8.20;;;6.37;;
10582;SDS011;33679;51.218;6.786;2023-08-17T07:19:52;6.33;;;5.50;;
10582;SDS011;33679;51.218;6.786;2023-08-17T07:22:29;8.17;;;6.50;;
10582;SDS011;33679;51.218;6.786;2023-08-17T07:25:02;8.43;;;6.03;;
10582;SDS011;33679;51.218;6.786;2023-08-17T07:27:35;9.23;;;6.40;;
10582;SDS011;33679;51.218;6.786;2023-08-17T07:30:08;9.80;;;6.03;;
10582;SDS011;33679;51.218;6.786;2023-08-17T07:32:42;10.83;;;5.93;;
10582;SDS011;33679;51.218;6.786;2023-08-17T07:35:15;11.90;;;6.53;;
10582;SDS011;33679;51.218;6.786;2023-08-17T07:37:47;11.97;;;7.47;;
10582;SDS011;33679;51.218;6.786;2023-08-17T07:40:19;7.40;;;6.00;;
10582;SDS011;33679;51.218;6.786;2023-08-17T07:42:52;9.80;;;5.90;;
10582;SDS011;33679;51.218;6.786;2023-08-17T07:45:24;7.50;;;6.37;;
10582;SDS011;33679;51.218;6.786;2023-08-17T07:47:58;6.97;;;5.90;;
10582;SDS011;33679;51.218;6.786;2023-08-17T07:50:32;10.20;;;7.80;;
10582;SDS011;33679;51.218;6.786;2023-08-17T07:53:05;8.90;;;6.77;;
10582;SDS011;33679;51.218;6.786;2023-08-17T07:55:38;13.47;;;7.27;;
10582;SDS011;33679;51.218;6.786;2023-08-17T07:58:11;9.47;;;7.40;;
10582;SDS011;33679;51.218;6.786;2023-08-17T08:00:43;9.60;;;7.20;;
10582;SDS011;33679;51.218;6.786;2023-08-17T08:03:19;13.03;;;7.70;;
10582;SDS011;33679;51.218;6.786;2023-08-17T08:05:51;14.23;;;8.47;;
10582;SDS011;33679;51.218;6.786;2023-08-17T08:08:24;10.13;;;7.67;;
10582;SDS011;33679;51.218;6.786;2023-08-17T08:10:58;15.67;;;7.63;;
10582;SDS011;33679;51.218;6.786;2023-08-17T08:13:30;10.77;;;8.00;;
10582;SDS011;33679;51.218;6.786;2023-08-17T08:16:04;14.03;;;8.40;;
10582;SDS011;33679;51.218;6.786;2023-08-17T08:18:39;13.70;;;8.80;;
10582;SDS011;33679;51.218;6.786;2023-08-17T08:21:12;14.57;;;10.50;;
10582;SDS011;33679;51.218;6.786;2023-08-17T08:23:45;12.87;;;7.60;;
10582;SDS011;33679;51.218;6.786;2023-08-17T08:26:20;16.43;;;8.47;;
10582;SDS011;33679;51.218;6.786;2023-08-17T08:28:53;12.30;;;7.80;;
10582;SDS011;33679;51.218;6.786;2023-08-17T08:31:35;14.77;;;9.30;;
10582;SDS011;33679;51.218;6.786;2023-08-17T08:34:09;14.97;;;8.97;;
10582;SDS011;33679;51.218;6.786;2023-08-17T08:36:41;15.83;;;9.60;;
10582;SDS011;33679;51.218;6.786;2023-08-17T08:39:17;16.37;;;10.10;;
10582;SDS011;33679;51.218;6.786;2023-08-17T08:41:52;10.70;;;7.13;;
10582;SDS011;33679;51.218;6.786;2023-08-17T08:44:25;11.30;;;8.60;;
10582;SDS011;33679;51.218;6.786;2023-08-17T08:46:57;16.03;;;10.83;;
10582;SDS011;33679;51.218;6.786;2023-08-17T08:49:33;15.57;;;9.20;;
10582;SDS011;33679;51.218;6.786;2023-08-17T08:52:12;12.60;;;10.03;;
10582;SDS011;33679;51.218;6.786;2023-08-17T08:54:53;10.20;;;7.03;;
10582;SDS011;33679;51.218;6.786;2023-08-17T08:57:31;13.63;;;9.17;;
10582;SDS011;33679;51.218;6.786;2023-08-17T09:00:04;10.83;;;7.83;;
10582;SDS011;33679;51.218;6.786;2023-08-17T09:02:39;16.20;;;9.60;;
10582;SDS011;33679;51.218;6.786;2023-08-17T09:05:15;11.53;;;8.23;;
10582;SDS011;33679;51.218;6.786;2023-08-17T09:07:49;11.13;;;7.93;;
10582;SDS011;33679;51.218;6.786;2023-08-17T09:10:24;10.00;;;7.93;;
10582;SDS011;33679;51.218;6.786;2023-08-17T09:13:00;12.37;;;8.40;;
10582;SDS011;33679;51.218;6.786;2023-08-17T09:15:32;12.90;;;8.97;;
10582;SDS011;33679;51.218;6.786;2023-08-17T09:18:05;12.17;;;8.87;;
10582;SDS011;33679;51.218;6.786;2023-08-17T09:20:40;13.70;;;8.93;;
10582;SDS011;33679;51.218;6.786;2023-08-17T09:23:15;15.43;;;9.50;;
10582;SDS011;33679;51.218;6.786;2023-08-17T09:25:50;16.60;;;10.53;;
10582;SDS011;33679;51.218;6.786;2023-08-17T09:28:28;13.37;;;10.00;;
10582;SDS011;33679;51.218;6.786;2023-08-17T09:31:00;16.50;;;10.50;;
10582;SDS011;33679;51.218;6.786;2023-08-17T09:33:34;12.60;;;9.20;;
10582;SDS011;33679;51.218;6.786;2023-08-17T09:36:09;13.00;;;9.43;;
10582;SDS011;33679;51.218;6.786;2023-08-17T09:38:43;13.60;;;9.33;;
10582;SDS011;33679;51.218;6.786;2023-08-17T09:41:16;11.33;;;9.00;;
10582;SDS011;33679;51.218;6.786;2023-08-17T09:43:49;14.60;;;10.83;;
10582;SDS011;33679;51.218;6.786;2023-08-17T09:46:21;14.73;;;9.30;;
10582;SDS011;33679;51.218;6.786;2023-08-17T09:48:56;12.30;;;8.77;;
10582;SDS011;33679;51.218;6.786;2023-08-17T09:51:30;15.87;;;10.03;;
10582;SDS011;33679;51.218;6.786;2023-08-17T09:54:03;14.67;;;8.90;;
10582;SDS011;33679;51.218;6.786;2023-08-17T09:56:36;17.03;;;10.73;;
10582;SDS011;33679;51.218;6.786;2023-08-17T09:59:11;14.07;;;9.90;;
10582;SDS011;33679;51.218;6.786;2023-08-17T10:01:43;11.93;;;9.10;;
10582;SDS011;33679;51.218;6.786;2023-08-17T10:04:19;12.30;;;9.17;;
10582;SDS011;33679;51.218;6.786;2023-08-17T10:06:57;11.57;;;8.93;;
10582;SDS011;33679;51.218;6.786;2023-08-17T10:09:33;11.63;;;8.00;;
10582;SDS011;33679;51.218;6.786;2023-08-17T10:12:10;13.17;;;9.70;;
10582;SDS011;33679;51.218;6.786;2023-08-17T10:14:49;10.27;;;8.50;;
10582;SDS011;33679;51.218;6.786;2023-08-17T10:17:25;12.23;;;9.27;;
10582;SDS011;33679;51.218;6.786;2023-08-17T10:19:58;17.60;;;9.97;;
10582;SDS011;33679;51.218;6.786;2023-08-17T10:22:33;14.40;;;9.13;;
10582;SDS011;33679;51.218;6.786;2023-08-17T10:25:13;11.60;;;8.00;;
10582;SDS011;33679;51.218;6.786;2023-08-17T10:27:47;12.27;;;7.90;;
10582;SDS011;33679;51.218;6.786;2023-08-17T10:30:23;12.53;;;9.03;;
10582;SDS011;33679;51.218;6.786;2023-08-17T10:32:56;13.60;;;8.50;;
10582;SDS011;33679;51.218;6.786;2023-08-17T10:35:29;17.37;;;9.70;;
10582;SDS011;33679;51.218;6.786;2023-08-17T10:38:04;19.83;;;10.00;;
10582;SDS011;33679;51.218;6.786;2023-08-17T10:40:37;15.60;;;10.80;;
10582;SDS011;33679;51.218;6.786;2023-08-17T10:43:11;17.43;;;11.63;;
10582;SDS011;33679;51.218;6.786;2023-08-17T10:45:43;19.93;;;11.83;;
10582;SDS011;33679;51.218;6.786;2023-08-17T10:48:24;14.87;;;10.03;;
10582;SDS011;33679;51.218;6.786;2023-08-17T10:50:59;15.20;;;10.93;;
10582;SDS011;33679;51.218;6.786;2023-08-17T10:53:37;15.83;;;11.23;;
10582;SDS011;33679;51.218;6.786;2023-08-17T10:56:14;20.57;;;11.67;;
10582;SDS011;33679;51.218;6.786;2023-08-17T10:58:50;12.83;;;10.00;;
10582;SDS011;33679;51.218;6.786;2023-08-17T11:01:33;14.47;;;9.40;;
10582;SDS011;33679;51.218;6.786;2023-08-17T11:04:15;15.27;;;10.87;;
10582;SDS011;33679;51.218;6.786;2023-08-17T11:07:00;14.73;;;10.73;;
10582;SDS011;33679;51.218;6.786;2023-08-17T11:09:36;12.00;;;9.80;;
10582;SDS011;33679;51.218;6.786;2023-08-17T11:14:58;12.20;;;8.77;;
10582;SDS011;33679;51.218;6.786;2023-08-17T11:17:31;13.50;;;9.47;;
10582;SDS011;33679;51.218;6.786;2023-08-17T11:20:04;12.00;;;9.60;;
10582;SDS011;33679;51.218;6.786;2023-08-17T11:22:39;12.63;;;7.23;;
10582;SDS011;33679;51.218;6.786;2023-08-17T11:25:13;11.10;;;8.40;;
10582;SDS011;33679;51.218;6.786;2023-08-17T11:27:46;12.37;;;8.00;;
10582;SDS011;33679;51.218;6.786;2023-08-17T11:30:18;13.93;;;7.87;;
10582;SDS011;33679;51.218;6.786;2023-08-17T11:32:52;15.53;;;9.00;;
10582;SDS011;33679;51.218;6.786;2023-08-17T11:35:26;8.97;;;6.70;;
10582;SDS011;33679;51.218;6.786;2023-08-17T11:37:58;11.20;;;6.07;;
10582;SDS011;33679;51.218;6.786;2023-08-17T11:40:32;13.67;;;6.73;;
10582;SDS011;33679;51.218;6.786;2023-08-17T11:43:05;10.87;;;8.10;;
10582;SDS011;33679;51.218;6.786;2023-08-17T11:45:40;11.87;;;7.80;;
10582;SDS011;33679;51.218;6.786;2023-08-17T11:48:12;13.10;;;9.10;;
10582;SDS011;33679;51.218;6.786;2023-08-17T11:50:47;11.47;;;7.77;;
10582;SDS011;33679;51.218;6.786;2023-08-17T11:53:20;9.80;;;6.10;;
10582;SDS011;33679;51.218;6.786;2023-08-17T11:55:55;8.53;;;6.17;;
10582;SDS011;33679;51.218;6.786;2023-08-17T11:58:36;6.17;;;4.60;;
10582;SDS011;33679;51.218;6.786;2023-08-17T12:01:12;9.40;;;5.80;;
10582;SDS011;33679;51.218;6.786;2023-08-17T12:03:47;11.07;;;7.60;;
10582;SDS011;33679;51.218;6.786;2023-08-17T12:06:20;9.50;;;6.03;;
10582;SDS011;33679;51.218;6.786;2023-08-17T12:08:52;6.80;;;5.37;;
10582;SDS011;33679;51.218;6.786;2023-08-17T12:11:26;9.60;;;5.53;;
10582;SDS011;33679;51.218;6.786;2023-08-17T12:13:59;8.20;;;6.00;;
10582;SDS011;33679;51.218;6.786;2023-08-17T12:16:46;8.70;;;6.20;;
10582;SDS011;33679;51.218;6.786;2023-08-17T12:19:19;9.33;;;6.03;;
10582;SDS011;33679;51.218;6.786;2023-08-17T12:21:51;7.10;;;5.50;;
10582;SDS011;33679;51.218;6.786;2023-08-17T12:24:24;9.60;;;7.60;;
10582;SDS011;33679;51.218;6.786;2023-08-17T12:27:00;9.83;;;6.93;;
10582;SDS011;33679;51.218;6.786;2023-08-17T12:29:45;8.17;;;6.20;;
10582;SDS011;33679;51.218;6.786;2023-08-17T12:32:20;6.13;;;4.90;;
10582;SDS011;33679;51.218;6.786;2023-08-17T12:34:53;7.50;;;5.93;;
10582;SDS011;33679;51.218;6.786;2023-08-17T12:37:26;6.90;;;5.93;;
10582;SDS011;33679;51.218;6.786;2023-08-17T12:39:59;7.30;;;5.73;;
10582;SDS011;33679;51.218;6.786;2023-08-17T12:42:33;8.33;;;5.70;;
10582;SDS011;33679;51.218;6.786;2023-08-17T12:45:06;8.17;;;6.53;;
10582;SDS011;33679;51.218;6.786;2023-08-17T12:47:40;7.80;;;6.57;;
10582;SDS011;33679;51.218;6.786;2023-08-17T12:50:12;10.37;;;7.80;;
10582;SDS011;33679;51.218;6.786;2023-08-17T12:52:45;7.20;;;6.20;;
10582;SDS011;33679;51.218;6.786;2023-08-17T12:55:17;8.73;;;6.40;;
10582;SDS011;33679;51.218;6.786;2023-08-17T12:57:56;10.10;;;6.67;;
10582;SDS011;33679;51.218;6.786;2023-08-17T13:00:29;6.83;;;6.13;;
10582;SDS011;33679;51.218;6.786;2023-08-17T13:03:02;11.73;;;8.73;;
10582;SDS011;33679;51.218;6.786;2023-08-17T13:05:35;10.60;;;8.30;;
10582;SDS011;33679;51.218;6.786;2023-08-17T13:08:07;10.30;;;7.97;;
10582;SDS011;33679;51.218;6.786;2023-08-17T13:10:41;8.50;;;7.60;;
10582;SDS011;33679;51.218;6.786;2023-08-17T13:13:19;9.70;;;8.30;;
10582;SDS011;33679;51.218;6.786;2023-08-17T13:15:52;13.33;;;9.27;;
10582;SDS011;33679;51.218;6.786;2023-08-17T13:18:27;8.50;;;7.60;;
10582;SDS011;33679;51.218;6.786;2023-08-17T13:21:00;8.13;;;7.30;;
10582;SDS011;33679;51.218;6.786;2023-08-17T13:23:32;11.67;;;9.07;;
10582;SDS011;33679;51.218;6.786;2023-08-17T13:26:04;11.27;;;7.87;;
10582;SDS011;33679;51.218;6.786;2023-08-17T13:28:38;15.90;;;9.63;;
10582;SDS011;33679;51.218;6.786;2023-08-17T13:31:11;10.73;;;7.77;;
10582;SDS011;33679;51.218;6.786;2023-08-17T13:33:43;9.50;;;7.50;;
10582;SDS011;33679;51.218;6.786;2023-08-17T13:36:15;12.13;;;9.60;;
10582;SDS011;33679;51.218;6.786;2023-08-17T13:38:48;12.70;;;8.80;;
10582;SDS011;33679;51.218;6.786;2023-08-17T13:41:20;12.07;;;8.13;;
10582;SDS011;33679;51.218;6.786;2023-08-17T13:43:57;15.23;;;9.43;;
10582;SDS011;33679;51.218;6.786;2023-08-17T13:46:31;11.93;;;8.57;;
10582;SDS011;33679;51.218;6.786;2023-08-17T13:49:03;10.60;;;7.87;;
10582;SDS011;33679;51.218;6.786;2023-08-17T13:51:38;8.80;;;7.90;;
10582;SDS011;33679;51.218;6.786;2023-08-17T13:54:11;9.60;;;7.10;;
10582;SDS011;33679;51.218;6.786;2023-08-17T13:56:44;8.00;;;6.50;;
10582;SDS011;33679;51.218;6.786;2023-08-17T13:59:18;12.10;;;7.73;;
10582;SDS011;33679;51.218;6.786;2023-08-17T14:01:50;12.13;;;8.07;;
10582;SDS011;33679;51.218;6.786;2023-08-17T14:04:24;6.77;;;6.00;;
10582;SDS011;33679;51.218;6.786;2023-08-17T14:06:56;9.27;;;7.20;;
10582;SDS011;33679;51.218;6.786;2023-08-17T14:09:29;10.07;;;6.67;;
10582;SDS011;33679;51.218;6.786;2023-08-17T14:12:02;7.00;;;6.30;;
10582;SDS011;33679;51.218;6.786;2023-08-17T14:14:36;9.27;;;7.30;;
10582;SDS011;33679;51.218;6.786;2023-08-17T14:17:09;9.83;;;7.37;;
10582;SDS011;33679;51.218;6.786;2023-08-17T14:19:41;13.40;;;7.10;;
10582;SDS011;33679;51.218;6.786;2023-08-17T14:22:16;6.63;;;5.40;;
10582;SDS011;33679;51.218;6.786;2023-08-17T14:24:49;7.57;;;6.47;;
10582;SDS011;33679;51.218;6.786;2023-08-17T14:27:21;8.57;;;6.00;;
10582;SDS011;33679;51.218;6.786;2023-08-17T14:29:55;8.87;;;5.93;;
10582;SDS011;33679;51.218;6.786;2023-08-17T14:32:31;8.90;;;6.30;;
10582;SDS011;33679;51.218;6.786;2023-08-17T14:35:04;7.70;;;5.70;;
10582;SDS011;33679;51.218;6.786;2023-08-17T14:37:37;17.23;;;10.97;;
10582;SDS011;33679;51.218;6.786;2023-08-17T14:40:10;7.33;;;5.97;;
10582;SDS011;33679;51.218;6.786;2023-08-17T14:42:42;7.60;;;6.03;;
10582;SDS011;33679;51.218;6.786;2023-08-17T14:45:16;6.47;;;5.13;;
10582;SDS011;33679;51.218;6.786;2023-08-17T14:47:49;9.10;;;6.87;;
10582;SDS011;33679;51.218;6.786;2023-08-17T14:50:21;12.60;;;8.50;;
10582;SDS011;33679;51.218;6.786;2023-08-17T14:52:54;13.07;;;8.27;;
10582;SDS011;33679;51.218;6.786;2023-08-17T14:55:27;12.67;;;8.17;;
10582;SDS011;33679;51.218;6.786;2023-08-17T14:58:01;10.93;;;8.77;;
10582;SDS011;33679;51.218;6.786;2023-08-17T15:00:35;10.80;;;7.60;;
10582;SDS011;33679;51.218;6.786;2023-08-17T15:03:07;11.07;;;7.77;;
10582;SDS011;33679;51.218;6.786;2023-08-17T15:05:39;10.57;;;8.40;;
10582;SDS011;33679;51.218;6.786;2023-08-17T15:08:11;11.37;;;7.90;;
10582;SDS011;33679;51.218;6.786;2023-08-17T15:10:46;10.80;;;7.97;;
10582;SDS011;33679;51.218;6.786;2023-08-17T15:13:19;13.60;;;8.73;;
10582;SDS011;33679;51.218;6.786;2023-08-17T15:15:54;12.17;;;8.73;;
10582;SDS011;33679;51.218;6.786;2023-08-17T15:18:27;9.70;;;8.57;;
10582;SDS011;33679;51.218;6.786;2023-08-17T15:20:59;12.80;;;8.40;;
10582;SDS011;33679;51.218;6.786;2023-08-17T15:23:40;11.43;;;8.20;;